createdAt,value
2023-02-04T00:00:10.742Z,4.52
2023-02-04T00:01:10.704Z,4.45
2023-02-04T00:02:10.690Z,4.56
2023-02-04T00:03:10.623Z,4.58
2023-02-04T00:04:10.849Z,4.45
2023-02-04T00:05:10.614Z,4.44
2023-02-04T00:06:10.582Z,4.34
2023-02-04T00:07:10.491Z,4.48
2023-02-04T00:08:10.441Z,4.48
2023-02-04T00:09:10.407Z,4.50
2023-02-04T00:10:10.442Z,4.40
2023-02-04T00:11:10.327Z,4.50
2023-02-04T00:12:10.317Z,4.48
2023-02-04T00:13:10.264Z,4.58
2023-02-04T00:14:10.229Z,4.59
2023-02-04T00:15:10.189Z,4.63
2023-02-04T00:16:10.276Z,4.63
2023-02-04T00:17:10.144Z,4.59
2023-02-04T00:18:10.119Z,4.58
2023-02-04T00:19:10.076Z,4.45
2023-02-04T00:20:10.013Z,4.44
2023-02-04T00:21:09.991Z,4.55
2023-02-04T00:22:10.009Z,4.45
2023-02-04T00:23:09.899Z,4.49
2023-02-04T00:24:09.872Z,4.44
2023-02-04T00:25:09.830Z,4.56
2023-02-04T00:26:09.755Z,4.48
2023-02-04T00:27:09.721Z,4.45
2023-02-04T00:28:09.819Z,4.48
2023-02-04T00:29:09.646Z,4.42
2023-02-04T00:30:09.647Z,4.42
2023-02-04T00:31:09.603Z,4.44
2023-02-04T00:32:09.628Z,4.40
2023-02-04T00:33:09.560Z,4.42
2023-02-04T00:34:09.483Z,4.44
2023-02-04T00:35:09.437Z,4.41
2023-02-04T00:36:09.402Z,4.41
2023-02-04T00:37:09.349Z,4.52
2023-02-04T00:38:09.876Z,4.41
2023-02-04T00:39:09.285Z,4.44
2023-02-04T00:40:09.239Z,4.48
2023-02-04T00:41:09.214Z,4.42
2023-02-04T00:42:09.157Z,4.52
2023-02-04T00:43:09.166Z,4.41
2023-02-04T00:44:09.074Z,4.44
2023-02-04T00:45:09.051Z,4.40
2023-02-04T00:46:09.018Z,4.48
2023-02-04T00:47:08.962Z,4.35
2023-02-04T00:48:08.929Z,4.48
2023-02-04T00:49:08.947Z,4.35
2023-02-04T00:50:08.868Z,4.38
2023-02-04T00:51:08.821Z,4.38
2023-02-04T00:52:08.802Z,4.38
2023-02-04T00:53:08.749Z,4.38
2023-02-04T00:54:08.712Z,4.40
2023-02-04T00:55:08.865Z,4.49
2023-02-04T00:56:08.679Z,4.44
2023-02-04T00:57:08.594Z,4.42
2023-02-04T00:58:08.563Z,4.49
2023-02-04T00:59:08.532Z,4.45
2023-02-04T01:00:08.501Z,4.45
2023-02-04T01:01:08.552Z,4.41
2023-02-04T01:02:08.432Z,4.35
2023-02-04T01:03:08.424Z,4.35
2023-02-04T01:04:08.330Z,4.23
2023-02-04T01:05:08.300Z,4.24
2023-02-04T01:06:08.319Z,4.19
2023-02-04T01:07:08.244Z,4.13
2023-02-04T01:08:08.189Z,4.01
2023-02-04T01:09:08.157Z,3.95
2023-02-04T01:10:08.129Z,3.98
2023-02-04T01:11:08.137Z,3.91
2023-02-04T01:12:08.046Z,3.83
2023-02-04T01:13:07.996Z,3.86
2023-02-04T01:14:07.978Z,3.77
2023-02-04T01:15:07.946Z,3.73
2023-02-04T01:16:07.921Z,3.66
2023-02-04T01:17:07.912Z,3.62
2023-02-04T01:18:07.799Z,3.62
2023-02-04T01:19:07.778Z,3.68
2023-02-04T01:20:07.730Z,3.59
2023-02-04T01:21:07.714Z,3.62
2023-02-04T01:22:07.665Z,3.50
2023-02-04T01:23:07.673Z,3.53
2023-02-04T01:24:07.584Z,3.51
2023-02-04T01:25:07.534Z,3.50
2023-02-04T01:26:07.495Z,3.51
2023-02-04T01:27:07.473Z,3.48
2023-02-04T01:28:07.611Z,3.47
2023-02-04T01:29:07.499Z,3.48
2023-02-04T01:30:07.352Z,3.44
2023-02-04T01:31:07.399Z,3.41
2023-02-04T01:32:07.320Z,3.45
2023-02-04T01:33:07.286Z,3.29
2023-02-04T01:34:07.195Z,3.42
2023-02-04T01:35:07.159Z,3.42
2023-02-04T01:36:07.126Z,3.29
2023-02-04T01:37:07.076Z,3.25
2023-02-04T01:38:07.185Z,3.29
2023-02-04T01:39:07.000Z,3.21
2023-02-04T01:40:06.969Z,3.18
2023-02-04T01:41:06.923Z,3.22
2023-02-04T01:42:06.897Z,3.07
2023-02-04T01:43:06.931Z,3.10
2023-02-04T01:44:06.811Z,3.10
2023-02-04T01:45:06.777Z,3.00
2023-02-04T01:46:06.930Z,3.05
2023-02-04T01:47:06.714Z,3.11
2023-02-04T01:48:06.744Z,3.00
2023-02-04T01:49:06.633Z,3.10
2023-02-04T01:50:06.589Z,3.10
2023-02-04T01:51:06.561Z,3.21
2023-02-04T01:52:06.508Z,3.19
2023-02-04T01:53:06.567Z,3.25
2023-02-04T01:54:06.482Z,3.32
2023-02-04T01:55:06.396Z,3.26
2023-02-04T01:56:06.349Z,3.34
2023-02-04T01:57:06.308Z,3.32
2023-02-04T01:58:06.279Z,3.44
2023-02-04T01:59:06.299Z,3.42
2023-02-04T02:00:06.209Z,3.41
2023-02-04T02:01:06.172Z,3.40
2023-02-04T02:02:06.186Z,3.42
2023-02-04T02:03:06.191Z,3.45
2023-02-04T02:04:06.121Z,3.53
2023-02-04T02:05:06.005Z,3.48
2023-02-04T02:06:05.961Z,3.51
2023-02-04T02:07:05.937Z,3.37
2023-02-04T02:08:05.898Z,3.47
2023-02-04T02:09:05.842Z,3.37
2023-02-04T02:10:05.899Z,3.31
2023-02-04T02:11:05.775Z,3.41
2023-02-04T02:12:05.739Z,3.28
2023-02-04T02:13:05.687Z,3.23
2023-02-04T02:14:05.658Z,3.14
2023-02-04T02:15:05.617Z,3.22
2023-02-04T02:16:05.646Z,3.19
2023-02-04T02:17:05.552Z,3.21
2023-02-04T02:18:05.508Z,3.13
2023-02-04T02:19:05.464Z,3.07
2023-02-04T02:20:05.507Z,2.98
2023-02-04T02:21:05.392Z,3.03
2023-02-04T02:22:05.417Z,3.03
2023-02-04T02:23:05.378Z,3.01
2023-02-04T02:24:05.295Z,3.01
2023-02-04T02:25:05.267Z,2.97
2023-02-04T02:26:05.231Z,2.95
2023-02-04T02:27:05.187Z,2.92
2023-02-04T02:28:05.278Z,3.01
2023-02-04T02:29:05.092Z,2.89
2023-02-04T02:31:44.017Z,2.86
2023-02-04T02:32:44.559Z,2.86
2023-02-04T02:33:44.876Z,2.77
2023-02-04T02:34:43.852Z,2.82
2023-02-04T02:35:43.808Z,2.72
2023-02-04T02:36:43.778Z,2.83
2023-02-04T02:37:43.733Z,2.80
2023-02-04T02:38:43.692Z,2.75
2023-02-04T02:39:43.711Z,2.79
2023-02-04T02:40:43.605Z,2.65
2023-02-04T02:41:43.603Z,2.61
2023-02-04T02:42:43.559Z,2.72
2023-02-04T02:43:43.490Z,2.60
2023-02-04T02:44:43.500Z,2.56
2023-02-04T02:45:43.426Z,2.57
2023-02-04T02:46:43.367Z,2.57
2023-02-04T02:47:43.324Z,2.57
2023-02-04T02:48:43.285Z,2.64
2023-02-04T02:49:43.368Z,2.61
2023-02-04T02:50:43.223Z,2.60
2023-02-04T02:51:43.175Z,2.50
2023-02-04T02:52:43.192Z,2.49
2023-02-04T02:53:43.093Z,2.44
2023-02-04T02:54:43.061Z,2.44
2023-02-04T02:55:43.888Z,2.35
2023-02-04T02:56:42.980Z,2.35
2023-02-04T02:57:42.991Z,2.33
2023-02-04T02:58:42.935Z,2.36
2023-02-04T02:59:42.871Z,2.36
2023-02-04T03:00:42.831Z,2.33
2023-02-04T03:01:42.784Z,2.26
2023-02-04T03:02:42.851Z,2.25
2023-02-04T03:03:43.382Z,2.26
2023-02-04T03:04:42.669Z,2.22
2023-02-04T03:05:42.630Z,2.24
2023-02-04T03:06:42.760Z,2.14
2023-02-04T03:07:42.617Z,2.20
2023-02-04T03:08:42.526Z,2.14
2023-02-04T03:09:42.471Z,2.07
2023-02-04T03:10:42.443Z,2.04
2023-02-04T03:11:42.401Z,2.06
2023-02-04T03:12:42.413Z,2.00
2023-02-04T03:13:42.337Z,2.04
2023-02-04T03:14:42.289Z,1.95
2023-02-04T03:15:42.348Z,2.07
2023-02-04T03:16:42.205Z,1.89
2023-02-04T03:17:42.217Z,2.04
2023-02-04T03:18:42.128Z,2.08
2023-02-04T03:19:42.098Z,2.06
2023-02-04T03:20:42.052Z,2.06
2023-02-04T03:21:42.037Z,2.00
2023-02-04T03:22:41.980Z,2.00
2023-02-04T03:23:47.877Z,1.99
2023-02-04T03:24:41.896Z,1.94
2023-02-04T03:25:41.864Z,1.92
2023-02-04T03:26:41.837Z,1.94
2023-02-04T03:27:41.827Z,1.84
2023-02-04T03:28:41.750Z,1.88
2023-02-04T03:29:41.759Z,1.94
2023-02-04T03:30:41.750Z,1.97
2023-02-04T03:31:41.709Z,1.97
2023-02-04T03:32:41.661Z,1.92
2023-02-04T03:33:41.557Z,1.85
2023-02-04T03:34:41.548Z,1.81
2023-02-04T03:35:41.534Z,2.02
2023-02-04T03:36:41.440Z,1.95
2023-02-04T03:37:41.396Z,1.94
2023-02-04T03:38:41.380Z,1.85
2023-02-04T03:39:41.324Z,1.87
2023-02-04T03:40:41.901Z,1.87
2023-02-04T03:41:41.306Z,1.89
2023-02-04T03:42:41.202Z,1.88
2023-02-04T03:43:41.170Z,1.91
2023-02-04T03:44:41.143Z,1.85
2023-02-04T03:45:45.507Z,1.87
2023-02-04T03:46:41.062Z,1.78
2023-02-04T03:47:41.089Z,1.85
2023-02-04T03:48:40.975Z,1.76
2023-02-04T03:49:40.931Z,1.67
2023-02-04T03:50:40.893Z,1.71
2023-02-04T03:51:40.874Z,1.76
2023-02-04T03:52:40.813Z,1.74
2023-02-04T03:53:40.829Z,1.77
2023-02-04T03:54:40.742Z,1.85
2023-02-04T03:55:40.697Z,1.81
2023-02-04T03:56:40.664Z,1.70
2023-02-04T03:57:41.385Z,1.66
2023-02-04T03:58:40.663Z,1.78
2023-02-04T03:59:40.550Z,1.74
2023-02-04T04:00:40.545Z,1.68
2023-02-04T04:01:40.526Z,1.68
2023-02-04T04:02:40.482Z,1.78
2023-02-04T04:03:40.412Z,1.71
2023-02-04T04:04:40.410Z,1.71
2023-02-04T04:05:40.362Z,1.71
2023-02-04T04:06:40.314Z,1.73
2023-02-04T04:07:40.236Z,1.70
2023-02-04T04:08:40.223Z,1.74
2023-02-04T04:09:40.208Z,1.74
2023-02-04T04:10:41.974Z,1.71
2023-02-04T04:11:40.089Z,1.74
2023-02-04T04:12:40.045Z,1.68
2023-02-04T04:13:40.036Z,1.78
2023-02-04T04:14:40.158Z,1.77
2023-02-04T04:15:40.068Z,1.77
2023-02-04T04:16:39.894Z,1.76
2023-02-04T04:17:39.848Z,1.70
2023-02-04T04:18:39.908Z,1.62
2023-02-04T04:19:39.770Z,1.66
2023-02-04T04:20:40.505Z,1.73
2023-02-04T04:21:39.756Z,1.73
2023-02-04T04:22:39.659Z,1.70
2023-02-04T04:23:39.685Z,1.70
2023-02-04T04:24:39.580Z,1.70
2023-02-04T04:25:39.545Z,1.81
2023-02-04T04:26:39.512Z,1.81
2023-02-04T04:27:39.515Z,1.80
2023-02-04T04:28:39.503Z,1.73
2023-02-04T04:29:39.419Z,1.70
2023-02-04T04:30:39.386Z,1.80
2023-02-04T04:31:39.541Z,1.70
2023-02-04T04:32:39.271Z,1.70
2023-02-04T04:33:39.223Z,1.71
2023-02-04T04:34:39.274Z,1.77
2023-02-04T04:35:39.160Z,1.71
2023-02-04T04:36:39.095Z,1.70
2023-02-04T04:37:39.073Z,1.66
2023-02-04T04:38:39.026Z,1.66
2023-02-04T04:39:38.993Z,1.70
2023-02-04T04:40:39.113Z,1.73
2023-02-04T04:41:38.916Z,1.73
2023-02-04T04:42:38.871Z,1.71
2023-02-04T04:43:38.843Z,1.81
2023-02-04T04:44:38.787Z,1.80
2023-02-04T04:45:38.746Z,1.67
2023-02-04T04:46:38.777Z,1.78
2023-02-04T04:47:38.674Z,1.70
2023-02-04T04:48:39.559Z,1.76
2023-02-04T04:49:38.601Z,1.68
2023-02-04T04:50:38.574Z,1.68
2023-02-04T04:51:38.517Z,1.68
2023-02-04T04:52:38.571Z,1.68
2023-02-04T04:53:38.439Z,1.80
2023-02-04T04:54:38.409Z,1.71
2023-02-04T04:55:38.363Z,1.76
2023-02-04T04:56:38.325Z,1.77
2023-02-04T04:57:38.290Z,1.73
2023-02-04T04:58:38.301Z,1.84
2023-02-04T04:59:38.210Z,1.76
2023-02-04T05:00:38.196Z,1.87
2023-02-04T05:01:38.132Z,1.84
2023-02-04T05:02:38.094Z,1.84
2023-02-04T05:03:47.038Z,1.89
2023-02-04T05:04:50.104Z,1.87
2023-02-04T05:05:38.001Z,1.85
2023-02-04T05:06:45.609Z,1.84
2023-02-04T05:07:37.897Z,1.84
2023-02-04T05:08:37.861Z,1.85
2023-02-04T05:09:37.896Z,1.77
2023-02-04T05:10:37.781Z,1.76
2023-02-04T05:11:37.794Z,1.81
2023-02-04T05:12:37.702Z,1.78
2023-02-04T05:13:37.667Z,1.77
2023-02-04T05:14:37.655Z,1.76
2023-02-04T05:15:37.589Z,1.76
2023-02-04T05:16:37.618Z,1.81
2023-02-04T05:17:37.549Z,1.85
2023-02-04T05:18:37.472Z,1.80
2023-02-04T05:19:37.454Z,1.73
2023-02-04T05:20:37.418Z,1.71
2023-02-04T05:21:37.442Z,1.76
2023-02-04T05:22:37.372Z,1.76
2023-02-04T05:23:37.277Z,1.67
2023-02-04T05:24:37.230Z,1.71
2023-02-04T05:25:37.208Z,1.74
2023-02-04T05:26:37.230Z,1.77
2023-02-04T05:27:37.116Z,1.81
2023-02-04T05:28:37.102Z,1.81
2023-02-04T05:29:37.048Z,1.76
2023-02-04T05:30:37.041Z,1.74
2023-02-04T05:31:37.007Z,1.74
2023-02-04T05:32:36.999Z,1.68
2023-02-04T05:33:36.889Z,1.78
2023-02-04T05:34:39.673Z,1.81
2023-02-04T05:35:36.802Z,1.74
2023-02-04T05:36:36.777Z,1.70
2023-02-04T05:37:36.724Z,1.70
2023-02-04T05:38:36.751Z,1.68
2023-02-04T05:39:36.669Z,1.73
2023-02-04T05:40:36.616Z,1.66
2023-02-04T05:41:36.570Z,1.58
2023-02-04T05:42:36.545Z,1.58
2023-02-04T05:43:36.559Z,1.56
2023-02-04T05:44:36.468Z,1.55
2023-02-04T05:45:36.517Z,1.56
2023-02-04T05:46:36.372Z,1.45
2023-02-04T05:47:36.425Z,1.53
2023-02-04T05:48:36.299Z,1.59
2023-02-04T05:49:36.402Z,1.48
2023-02-04T05:50:36.240Z,1.41
2023-02-04T05:51:36.195Z,1.49
2023-02-04T05:52:36.139Z,1.44
2023-02-04T05:53:36.100Z,1.45
2023-02-04T05:54:36.113Z,1.50
2023-02-04T05:55:36.031Z,1.50
2023-02-04T05:56:35.987Z,1.49
2023-02-04T05:57:35.949Z,1.44
2023-02-04T05:58:35.903Z,1.31
2023-02-04T05:59:35.940Z,1.41
2023-02-04T06:00:35.837Z,1.32
2023-02-04T06:01:35.793Z,1.30
2023-02-04T06:02:35.871Z,1.28
2023-02-04T06:03:35.869Z,1.44
2023-02-04T06:04:35.749Z,1.32
2023-02-04T06:05:35.633Z,1.31
2023-02-04T06:06:35.594Z,1.32
2023-02-04T06:07:35.554Z,1.30
2023-02-04T06:08:35.515Z,1.34
2023-02-04T06:09:35.474Z,1.19
2023-02-04T06:10:35.518Z,1.22
2023-02-04T06:11:35.405Z,1.22
2023-02-04T06:12:35.366Z,1.19
2023-02-04T06:13:35.348Z,1.20
2023-02-04T06:14:35.278Z,1.24
2023-02-04T06:15:35.242Z,1.20
2023-02-04T06:16:35.309Z,1.17
2023-02-04T06:17:35.165Z,1.32
2023-02-04T06:18:35.129Z,1.34
2023-02-04T06:19:35.096Z,1.30
2023-02-04T06:20:35.058Z,1.28
2023-02-04T06:21:35.006Z,1.22
2023-02-04T06:22:35.237Z,1.32
2023-02-04T06:23:34.942Z,1.28
2023-02-04T06:24:34.891Z,1.19
2023-02-04T06:25:34.860Z,1.19
2023-02-04T06:26:34.826Z,1.19
2023-02-04T06:27:34.789Z,1.17
2023-02-04T06:28:34.815Z,1.23
2023-02-04T06:29:34.719Z,1.17
2023-02-04T06:30:35.029Z,1.23
2023-02-04T06:31:34.722Z,1.22
2023-02-04T06:32:34.580Z,1.20
2023-02-04T06:33:34.547Z,1.24
2023-02-04T06:34:34.562Z,1.22
2023-02-04T06:35:34.462Z,1.19
2023-02-04T06:36:34.464Z,1.19
2023-02-04T06:37:34.382Z,1.26
2023-02-04T06:38:34.355Z,1.19
2023-02-04T06:39:34.321Z,1.30
2023-02-04T06:40:34.566Z,1.32
2023-02-04T06:41:34.244Z,1.31
2023-02-04T06:42:34.188Z,1.26
2023-02-04T06:43:34.153Z,1.17
2023-02-04T06:44:34.124Z,1.24
2023-02-04T06:45:34.075Z,1.17
2023-02-04T06:46:34.109Z,1.20
2023-02-04T06:47:34.520Z,1.16
2023-02-04T06:48:33.946Z,1.19
2023-02-04T06:49:33.904Z,1.20
2023-02-04T06:50:34.129Z,1.22
2023-02-04T06:51:33.840Z,1.20
2023-02-04T06:52:33.870Z,1.19
2023-02-04T06:53:33.789Z,1.22
2023-02-04T06:54:33.713Z,1.14
2023-02-04T06:55:33.677Z,1.13
2023-02-04T06:56:33.646Z,1.08
2023-02-04T06:57:33.600Z,1.08
2023-02-04T06:58:33.631Z,1.19
2023-02-04T06:59:33.518Z,1.08
2023-02-04T07:00:33.840Z,1.06
2023-02-04T07:01:33.450Z,1.08
2023-02-04T07:02:33.497Z,1.08
2023-02-04T07:03:33.368Z,1.04
2023-02-04T07:04:33.454Z,1.13
2023-02-04T07:05:33.290Z,1.12
2023-02-04T07:06:33.323Z,1.10
2023-02-04T07:07:33.205Z,1.10
2023-02-04T07:08:33.169Z,1.10
2023-02-04T07:09:33.143Z,1.17
2023-02-04T07:10:33.474Z,1.16
2023-02-04T07:11:33.050Z,1.08
2023-02-04T07:12:33.078Z,1.22
2023-02-04T07:13:32.971Z,1.17
2023-02-04T07:14:33.616Z,1.20
2023-02-04T07:15:32.907Z,1.19
2023-02-04T07:16:32.856Z,1.17
2023-02-04T07:17:33.517Z,1.22
2023-02-04T07:18:32.826Z,1.19
2023-02-04T07:19:32.820Z,1.22
2023-02-04T07:20:33.135Z,1.22
2023-02-04T07:21:34.512Z,1.19
2023-02-04T07:22:32.618Z,1.19
2023-02-04T07:23:32.584Z,1.22
2023-02-04T07:24:32.602Z,1.24
2023-02-04T07:25:32.507Z,1.37
2023-02-04T07:26:32.468Z,1.31
2023-02-04T07:27:32.471Z,1.41
2023-02-04T07:28:32.455Z,1.45
2023-02-04T07:29:32.341Z,1.34
2023-02-04T07:30:32.722Z,1.44
2023-02-04T07:31:32.336Z,1.50
2023-02-04T07:32:32.226Z,1.50
2023-02-04T07:33:32.185Z,1.45
2023-02-04T07:34:32.147Z,1.49
2023-02-04T07:35:32.110Z,1.53
2023-02-04T07:36:32.183Z,1.53
2023-02-04T07:37:32.033Z,1.56
2023-02-04T07:38:31.994Z,1.49
2023-02-04T07:39:31.953Z,1.58
2023-02-04T07:40:32.245Z,1.55
2023-02-04T07:41:31.877Z,1.62
2023-02-04T07:42:31.889Z,1.66
2023-02-04T07:43:31.807Z,1.68
2023-02-04T07:44:31.807Z,1.68
2023-02-04T07:45:31.736Z,1.73
2023-02-04T07:46:31.737Z,1.73
2023-02-04T07:47:31.633Z,1.66
2023-02-04T07:48:31.670Z,1.68
2023-02-04T07:49:31.550Z,1.68
2023-02-04T07:50:31.917Z,1.71
2023-02-04T07:51:31.481Z,1.74
2023-02-04T07:52:31.436Z,1.70
2023-02-04T07:53:31.549Z,1.80
2023-02-04T07:54:31.416Z,1.73
2023-02-04T07:55:31.323Z,1.77
2023-02-04T07:56:31.285Z,1.77
2023-02-04T07:57:31.333Z,1.84
2023-02-04T07:58:31.198Z,1.87
2023-02-04T07:59:31.168Z,1.87
2023-02-04T08:00:31.499Z,1.88
2023-02-04T08:01:31.155Z,1.87
2023-02-04T08:02:31.648Z,1.91
2023-02-04T08:03:32.841Z,1.89
2023-02-04T08:04:30.974Z,1.97
2023-02-04T08:05:30.931Z,2.00
2023-02-04T08:06:30.998Z,1.99
2023-02-04T08:07:30.846Z,1.91
2023-02-04T08:08:30.814Z,2.10
2023-02-04T08:09:30.774Z,2.08
2023-02-04T08:10:37.504Z,2.08
2023-02-04T08:11:31.166Z,2.08
2023-02-04T08:12:30.652Z,2.13
2023-02-04T08:13:30.614Z,2.13
2023-02-04T08:14:30.598Z,2.14
2023-02-04T08:15:30.542Z,2.13
2023-02-04T08:16:30.498Z,2.20
2023-02-04T08:22:25.308Z,2.31
2023-02-04T08:23:07.144Z,2.24
2023-02-04T08:24:07.091Z,2.32
2023-02-04T08:25:07.054Z,2.35
2023-02-04T08:26:07.014Z,2.38
2023-02-04T08:27:07.002Z,2.39
2023-02-04T08:28:07.048Z,2.36
2023-02-04T08:29:06.920Z,2.47
2023-02-04T08:31:46.268Z,2.51
2023-02-04T08:32:46.182Z,2.49
2023-02-04T08:33:46.215Z,2.47
2023-02-04T08:34:46.104Z,2.67
2023-02-04T08:35:46.064Z,2.67
2023-02-04T08:36:46.028Z,2.61
2023-02-04T08:37:45.983Z,2.64
2023-02-04T08:38:46.521Z,2.71
2023-02-04T08:39:45.909Z,2.67
2023-02-04T08:40:45.874Z,2.75
2023-02-04T08:41:45.960Z,2.72
2023-02-04T08:42:45.798Z,2.79
2023-02-04T08:43:45.814Z,2.79
2023-02-04T08:44:45.728Z,2.77
2023-02-04T08:45:45.691Z,2.77
2023-02-04T08:46:45.697Z,2.68
2023-02-04T08:47:45.615Z,2.72
2023-02-04T08:48:45.584Z,2.79
2023-02-04T08:49:45.630Z,2.79
2023-02-04T08:50:45.498Z,2.79
2023-02-04T08:51:45.466Z,2.87
2023-02-04T08:52:45.444Z,2.87
2023-02-04T08:53:45.394Z,3.01
2023-02-04T08:54:45.444Z,2.90
2023-02-04T08:55:45.322Z,2.92
2023-02-04T08:56:45.281Z,2.89
2023-02-04T08:57:45.256Z,2.97
2023-02-04T08:58:46.226Z,2.97
2023-02-04T08:59:46.096Z,3.04
2023-02-04T09:00:45.216Z,3.01
2023-02-04T09:01:45.110Z,3.01
2023-02-04T09:02:45.064Z,3.01
2023-02-04T09:03:45.034Z,3.13
2023-02-04T09:04:44.977Z,3.13
2023-02-04T09:05:45.004Z,3.25
2023-02-04T09:06:44.965Z,3.16
2023-02-04T09:07:44.868Z,3.19
2023-02-04T09:08:44.837Z,3.26
2023-02-04T09:09:44.792Z,3.26
2023-02-04T09:10:44.773Z,3.26
2023-02-04T09:11:44.742Z,3.23
2023-02-04T09:12:44.729Z,3.32
2023-02-04T09:13:44.642Z,3.42
2023-02-04T09:14:44.610Z,3.41
2023-02-04T09:15:44.562Z,3.51
2023-02-04T09:16:44.555Z,3.45
2023-02-04T09:17:44.488Z,3.42
2023-02-04T09:18:44.504Z,3.47
2023-02-04T09:19:44.405Z,3.56
2023-02-04T09:20:44.407Z,3.50
2023-02-04T09:21:44.336Z,3.59
2023-02-04T09:22:44.308Z,3.50
2023-02-04T09:23:44.267Z,3.50
2023-02-04T09:24:44.293Z,3.51
2023-02-04T09:25:44.210Z,3.48
2023-02-04T09:26:44.155Z,3.41
2023-02-04T09:27:44.145Z,3.37
2023-02-04T09:28:44.097Z,3.55
2023-02-04T09:29:44.060Z,3.56
2023-02-04T09:30:44.084Z,3.68
2023-02-04T09:31:44.054Z,3.62
2023-02-04T09:32:44.074Z,3.62
2023-02-04T09:33:43.896Z,3.63
2023-02-04T09:34:43.854Z,3.76
2023-02-04T09:35:43.817Z,3.70
2023-02-04T09:36:43.824Z,3.63
2023-02-04T09:37:43.739Z,3.77
2023-02-04T09:38:43.702Z,3.58
2023-02-04T09:39:44.358Z,3.63
2023-02-04T09:40:43.630Z,3.65
2023-02-04T09:41:43.604Z,3.68
2023-02-04T09:42:43.597Z,3.69
2023-02-04T09:43:43.515Z,3.68
2023-02-04T09:44:43.472Z,3.59
2023-02-04T09:45:43.478Z,3.73
2023-02-04T09:46:43.409Z,3.59
2023-02-04T09:47:43.369Z,3.59
2023-02-04T09:48:43.391Z,3.50
2023-02-04T09:49:43.334Z,3.62
2023-02-04T09:50:43.259Z,3.66
2023-02-04T09:51:43.227Z,3.70
2023-02-04T09:52:43.212Z,3.58
2023-02-04T09:53:43.137Z,3.66
2023-02-04T09:54:43.155Z,3.59
2023-02-04T09:55:43.079Z,3.58
2023-02-04T09:56:43.067Z,3.60
2023-02-04T09:57:42.973Z,3.74
2023-02-04T09:58:42.934Z,3.83
2023-02-04T09:59:42.897Z,3.74
2023-02-04T10:00:42.940Z,3.83
2023-02-04T10:01:42.835Z,3.84
2023-02-04T10:02:42.788Z,3.81
2023-02-04T10:03:42.750Z,3.76
2023-02-04T10:04:42.707Z,3.77
2023-02-04T10:05:43.344Z,3.81
2023-02-04T10:06:42.893Z,3.88
2023-02-04T10:07:42.593Z,3.92
2023-02-04T10:08:42.545Z,3.86
2023-02-04T10:09:42.523Z,3.92
2023-02-04T10:10:42.480Z,3.94
2023-02-04T10:11:42.442Z,3.86
2023-02-04T10:12:42.454Z,3.99
2023-02-04T10:13:42.392Z,4.06
2023-02-04T10:14:42.317Z,4.13
2023-02-04T10:15:42.283Z,4.13
2023-02-04T10:16:42.397Z,4.22
2023-02-04T10:17:42.211Z,4.19
2023-02-04T10:18:42.264Z,4.20
2023-02-04T10:19:42.132Z,4.08
2023-02-04T10:20:42.096Z,4.13
2023-02-04T10:21:42.059Z,4.13
2023-02-04T10:22:42.021Z,4.10
2023-02-04T10:23:42.005Z,4.05
2023-02-04T10:24:41.991Z,4.24
2023-02-04T10:25:41.902Z,4.16
2023-02-04T10:26:41.873Z,4.28
2023-02-04T10:27:41.874Z,4.19
2023-02-04T10:28:41.951Z,4.22
2023-02-04T10:29:42.407Z,4.12
2023-02-04T10:30:42.479Z,4.05
2023-02-04T10:31:41.855Z,4.13
2023-02-04T10:32:45.236Z,4.20
2023-02-04T10:33:41.694Z,4.20
2023-02-04T10:34:41.676Z,4.30
2023-02-04T10:35:41.611Z,4.26
2023-02-04T10:36:41.516Z,4.37
2023-02-04T10:37:41.471Z,4.35
2023-02-04T10:38:41.427Z,4.40
2023-02-04T10:39:41.389Z,4.35
2023-02-04T10:40:43.239Z,4.35
2023-02-04T10:41:41.320Z,4.31
2023-02-04T10:42:41.277Z,4.42
2023-02-04T10:43:41.240Z,4.42
2023-02-04T10:44:41.202Z,4.60
2023-02-04T10:45:41.167Z,4.62
2023-02-04T10:46:41.232Z,4.68
2023-02-04T10:47:41.177Z,4.77
2023-02-04T10:48:41.068Z,4.87
2023-02-04T10:49:41.018Z,4.90
2023-02-04T10:50:40.977Z,4.87
2023-02-04T10:51:40.946Z,4.86
2023-02-04T10:52:40.990Z,5.05
2023-02-04T10:53:40.881Z,4.90
2023-02-04T10:54:40.916Z,4.80
2023-02-04T10:55:40.860Z,4.71
2023-02-04T10:56:40.802Z,4.71
2023-02-04T10:57:40.792Z,4.78
2023-02-04T10:58:40.750Z,4.75
2023-02-04T10:59:40.649Z,4.74
2023-02-04T11:00:40.610Z,4.73
2023-02-04T11:01:40.628Z,4.75
2023-02-04T11:02:40.544Z,4.82
2023-02-04T11:03:41.283Z,4.86
2023-02-04T11:04:40.581Z,4.75
2023-02-04T11:05:40.430Z,4.82
2023-02-04T11:06:40.496Z,4.90
2023-02-04T11:07:40.356Z,5.07
2023-02-04T11:08:40.321Z,5.10
2023-02-04T11:09:40.366Z,5.21
2023-02-04T11:10:40.409Z,5.12
2023-02-04T11:11:40.240Z,5.08
2023-02-04T11:12:40.401Z,5.10
2023-02-04T11:13:40.190Z,5.15
2023-02-04T11:14:41.747Z,5.17
2023-02-04T11:15:41.133Z,5.33
2023-02-04T11:16:40.203Z,5.43
2023-02-04T11:17:40.750Z,5.53
2023-02-04T11:18:40.002Z,5.57
2023-02-04T11:19:39.924Z,5.54
2023-02-04T11:20:39.875Z,5.51
2023-02-04T11:21:40.085Z,5.54
2023-02-04T11:22:39.809Z,5.41
2023-02-04T11:23:39.784Z,5.51
2023-02-04T11:24:39.763Z,5.56
2023-02-04T11:25:39.714Z,5.56
2023-02-04T11:26:39.649Z,5.64
2023-02-04T11:27:39.764Z,5.65
2023-02-04T11:28:39.599Z,5.62
2023-02-04T11:29:39.549Z,5.47
2023-02-04T11:30:39.641Z,5.53
2023-02-04T11:31:39.694Z,5.53
2023-02-04T11:32:39.434Z,5.47
2023-02-04T11:33:39.485Z,5.51
2023-02-04T11:34:39.378Z,5.46
2023-02-04T11:35:39.343Z,5.46
2023-02-04T11:36:39.294Z,5.59
2023-02-04T11:37:39.286Z,5.75
2023-02-04T11:38:39.244Z,5.75
2023-02-04T11:39:39.403Z,5.80
2023-02-04T11:40:39.165Z,5.80
2023-02-04T11:41:39.222Z,5.91
2023-02-04T11:42:39.068Z,6.05
2023-02-04T11:43:40.248Z,5.97
2023-02-04T11:44:39.752Z,6.01
2023-02-04T11:45:39.002Z,5.90
2023-02-04T11:46:39.034Z,5.93
2023-02-04T11:47:39.073Z,5.71
2023-02-04T11:48:39.058Z,5.48
2023-02-04T11:49:38.901Z,5.43
2023-02-04T11:50:38.856Z,5.36
2023-02-04T11:51:38.908Z,5.44
2023-02-04T11:52:38.702Z,5.41
2023-02-04T11:53:38.671Z,5.38
2023-02-04T11:54:38.630Z,5.39
2023-02-04T11:55:38.673Z,5.50
2023-02-04T11:56:38.617Z,5.50
2023-02-04T11:57:38.549Z,5.47
2023-02-04T11:58:38.499Z,5.51
2023-02-04T11:59:38.453Z,5.43
2023-02-04T12:00:38.421Z,5.50
2023-02-04T12:01:38.470Z,5.56
2023-02-04T12:02:38.430Z,5.62
2023-02-04T12:03:38.351Z,5.53
2023-02-04T12:04:38.288Z,5.53
2023-02-04T12:05:38.324Z,5.57
2023-02-04T12:06:38.205Z,5.66
2023-02-04T12:07:38.223Z,5.54
2023-02-04T12:08:38.123Z,5.38
2023-02-04T12:09:38.111Z,5.07
2023-02-04T12:10:38.086Z,4.93
2023-02-04T12:11:38.005Z,4.93
2023-02-04T12:12:37.982Z,4.84
2023-02-04T12:13:38.006Z,4.86
2023-02-04T12:14:37.905Z,4.87
2023-02-04T12:15:37.919Z,4.87
2023-02-04T12:16:37.838Z,4.87
2023-02-04T12:17:37.793Z,4.90
2023-02-04T12:18:37.784Z,4.86
2023-02-04T12:19:37.796Z,4.87
2023-02-04T12:20:37.702Z,4.89
2023-02-04T12:21:37.684Z,4.74
2023-02-04T12:22:37.685Z,4.86
2023-02-04T12:23:37.588Z,4.87
2023-02-04T12:24:37.552Z,4.92
2023-02-04T12:25:37.575Z,4.96
2023-02-04T12:26:37.470Z,5.11
2023-02-04T12:27:37.441Z,5.20
2023-02-04T12:28:37.389Z,5.26
2023-02-04T12:29:37.356Z,5.28
2023-02-04T12:30:37.315Z,5.50
2023-02-04T12:31:37.421Z,5.54
2023-02-04T12:32:37.280Z,5.61
2023-02-04T12:33:37.225Z,5.48
2023-02-04T12:34:37.174Z,5.32
2023-02-04T12:35:37.133Z,5.30
2023-02-04T12:36:37.179Z,5.21
2023-02-04T12:37:37.055Z,5.21
2023-02-04T12:38:37.027Z,5.14
2023-02-04T12:39:37.092Z,5.04
2023-02-04T12:40:36.960Z,4.89
2023-02-04T12:41:36.920Z,4.87
2023-02-04T12:42:36.948Z,4.86
2023-02-04T12:43:36.838Z,4.93
2023-02-04T12:44:36.801Z,4.94
2023-02-04T12:45:36.766Z,4.92
2023-02-04T12:46:36.817Z,4.93
2023-02-04T12:47:36.684Z,4.94
2023-02-04T12:48:36.754Z,4.93
2023-02-04T12:49:36.623Z,4.96
2023-02-04T12:50:36.586Z,4.99
2023-02-04T12:51:36.534Z,5.04
2023-02-04T12:52:36.607Z,5.17
2023-02-04T12:53:36.468Z,5.15
2023-02-04T12:54:36.479Z,5.20
2023-02-04T12:55:36.400Z,5.28
2023-02-04T12:56:36.414Z,5.29
2023-02-04T12:57:36.316Z,5.20
2023-02-04T12:58:36.372Z,5.17
2023-02-04T12:59:36.235Z,5.20
2023-02-04T13:00:36.336Z,5.18
2023-02-04T13:01:36.190Z,5.17
2023-02-04T13:02:36.386Z,5.10
2023-02-04T13:03:36.162Z,5.25
2023-02-04T13:04:36.053Z,5.17
2023-02-04T13:05:36.083Z,5.18
2023-02-04T13:06:37.447Z,5.12
2023-02-04T13:07:35.954Z,5.18
2023-02-04T13:08:35.913Z,5.28
2023-02-04T13:09:35.866Z,5.46
2023-02-04T13:10:35.850Z,5.50
2023-02-04T13:11:35.794Z,5.44
2023-02-04T13:12:35.807Z,5.66
2023-02-04T13:13:35.729Z,5.71
2023-02-04T13:14:35.692Z,5.79
2023-02-04T13:15:35.653Z,5.90
2023-02-04T13:16:35.707Z,6.08
2023-02-04T13:17:35.568Z,6.05
2023-02-04T13:18:35.597Z,6.02
2023-02-04T13:19:35.501Z,6.19
2023-02-04T13:20:35.466Z,6.20
2023-02-04T13:21:35.429Z,6.26
2023-02-04T13:22:35.386Z,6.22
2023-02-04T13:23:35.354Z,6.12
2023-02-04T13:24:35.377Z,6.09
2023-02-04T13:25:35.353Z,6.07